Melfa, Virginia
Current Conditions -  °F | °C
As of 2:15 PM on Monday 20 Oct 2014 (Local Time) from KMFV Reporting Station
Clear Clear  
Wind Chill: 64°   Ceiling: Unl
Heat Index: 64°   Visibility: 10mi
Dew Point: 36°   Wind: 9mph
Humidity: 34%   Direction: 190°S
Pressure: 30.06"   Gusts: 17mph
Location:  37.65°N, 75.74°W
Report Text: KMFV 201815Z AUTO 19008G15KT 150V240 10SM CLR 18/02 A3006 RMK AO2
Loading
Personal Weather Stations






























Interactive Weather Map
Tropical Storm Tracking
New forecast layout! Learn more

10-Day Weather Forecast

Advertisements
Track Severe Weather on mobile